createdAt,value
2023-04-08T00:00:56.483Z,46.60
2023-04-08T00:01:56.572Z,46.00
2023-04-08T00:02:56.590Z,47.60
2023-04-08T00:03:56.735Z,44.60
2023-04-08T00:04:56.546Z,44.90
2023-04-08T00:05:56.460Z,46.00
2023-04-08T00:06:56.452Z,47.10
2023-04-08T00:07:56.458Z,47.90
2023-04-08T00:08:56.473Z,48.00
2023-04-08T00:09:56.440Z,47.80
2023-04-08T00:10:56.438Z,48.10
2023-04-08T00:11:56.432Z,48.10
2023-04-08T00:12:56.426Z,50.30
2023-04-08T00:13:56.422Z,51.90
2023-04-08T00:14:56.419Z,48.10
2023-04-08T00:15:56.416Z,49.60
2023-04-08T00:16:56.434Z,53.40
2023-04-08T00:17:56.510Z,51.80
2023-04-08T00:18:56.398Z,51.30
2023-04-08T00:19:56.396Z,53.80
2023-04-08T00:20:56.388Z,53.40
2023-04-08T00:21:56.392Z,50.90
2023-04-08T00:22:56.383Z,52.00
2023-04-08T00:23:56.380Z,50.60
2023-04-08T00:24:56.390Z,51.30
2023-04-08T00:25:56.369Z,52.10
2023-04-08T00:26:56.369Z,51.90
2023-04-08T00:27:56.359Z,53.80
2023-04-08T00:28:56.352Z,52.00
2023-04-08T00:29:56.350Z,54.10
2023-04-08T00:30:56.395Z,50.80
2023-04-08T00:31:56.356Z,52.10
2023-04-08T00:32:56.406Z,52.70
2023-04-08T00:33:56.330Z,55.20
2023-04-08T00:34:56.326Z,55.00
2023-04-08T00:35:56.338Z,53.10
2023-04-08T00:36:56.329Z,53.30
2023-04-08T00:37:56.316Z,53.40
2023-04-08T00:38:56.310Z,55.30
2023-04-08T00:39:56.310Z,55.30
2023-04-08T00:40:56.318Z,58.50
2023-04-08T00:41:56.327Z,60.60
2023-04-08T00:42:56.291Z,58.20
2023-04-08T00:43:56.286Z,59.20
2023-04-08T00:44:56.289Z,59.20
2023-04-08T00:45:56.356Z,60.90
2023-04-08T00:46:56.271Z,59.50
2023-04-08T00:47:56.293Z,62.40
2023-04-08T00:48:56.263Z,59.80
2023-04-08T00:49:56.258Z,60.90
2023-04-08T00:50:56.255Z,67.70
2023-04-08T00:51:56.252Z,65.90
2023-04-08T00:52:56.242Z,67.10
2023-04-08T00:53:56.238Z,66.10
2023-04-08T00:54:56.232Z,64.90
2023-04-08T00:55:56.233Z,63.10
2023-04-08T00:56:56.251Z,67.10
2023-04-08T00:57:56.225Z,70.60
2023-04-08T00:58:56.229Z,65.90
2023-04-08T00:59:56.219Z,66.10
2023-04-08T01:00:56.207Z,72.80
2023-04-08T01:01:56.270Z,61.40
2023-04-08T01:02:56.319Z,68.00
2023-04-08T01:03:56.408Z,73.10
2023-04-08T01:04:56.189Z,69.80
2023-04-08T01:05:56.191Z,72.50
2023-04-08T01:06:56.181Z,69.10
2023-04-08T01:07:56.183Z,73.30
2023-04-08T01:08:56.171Z,75.30
2023-04-08T01:09:56.168Z,72.50
2023-04-08T01:10:56.168Z,74.80
2023-04-08T01:11:56.158Z,77.30
2023-04-08T01:12:56.179Z,73.40
2023-04-08T01:13:56.150Z,80.40
2023-04-08T01:14:56.148Z,77.10
2023-04-08T01:15:56.164Z,78.70
2023-04-08T01:16:56.136Z,80.80
2023-04-08T01:17:56.203Z,80.50
2023-04-08T01:18:56.127Z,79.90
2023-04-08T01:19:56.121Z,80.90
2023-04-08T01:20:56.116Z,77.80
2023-04-08T01:21:56.115Z,85.60
2023-04-08T01:22:56.111Z,83.60
2023-04-08T01:23:56.106Z,82.00
2023-04-08T01:24:56.103Z,82.40
2023-04-08T01:25:56.109Z,83.40
2023-04-08T01:26:56.096Z,84.70
2023-04-08T01:27:56.087Z,87.00
2023-04-08T01:28:56.102Z,88.80
2023-04-08T01:29:56.082Z,91.20
2023-04-08T01:30:56.084Z,94.30
2023-04-08T01:31:56.075Z,91.40
2023-04-08T01:32:56.140Z,96.10
2023-04-08T01:33:56.061Z,93.10
2023-04-08T01:34:56.054Z,94.20
2023-04-08T01:35:56.545Z,98.30
2023-04-08T01:36:57.962Z,97.90
2023-04-08T01:37:56.047Z,99.60
2023-04-08T01:38:56.042Z,100.70
2023-04-08T01:39:56.038Z,97.50
2023-04-08T01:40:56.034Z,96.30
2023-04-08T01:41:56.031Z,101.90
2023-04-08T01:42:56.023Z,94.10
2023-04-08T01:43:56.017Z,100.70
2023-04-08T01:44:56.036Z,106.00
2023-04-08T01:45:56.013Z,104.10
2023-04-08T01:46:56.074Z,100.60
2023-04-08T01:47:56.041Z,109.10
2023-04-08T01:48:56.000Z,110.80
2023-04-08T01:49:55.988Z,103.00
2023-04-08T01:50:55.992Z,110.70
2023-04-08T01:51:55.986Z,109.60
2023-04-08T01:52:55.996Z,106.00
2023-04-08T01:53:55.974Z,103.50
2023-04-08T01:54:55.978Z,105.30
2023-04-08T01:55:55.965Z,103.30
2023-04-08T01:56:55.967Z,109.80
2023-04-08T01:57:55.965Z,111.80
2023-04-08T01:58:55.952Z,109.60
2023-04-08T01:59:55.956Z,107.60
2023-04-08T02:00:55.968Z,104.70
2023-04-08T02:01:56.027Z,102.70
2023-04-08T02:02:56.214Z,108.30
2023-04-08T02:03:56.017Z,108.60
2023-04-08T02:04:55.932Z,108.70
2023-04-08T02:05:55.920Z,106.70
2023-04-08T02:06:55.919Z,104.00
2023-04-08T02:07:55.915Z,104.20
2023-04-08T02:08:55.908Z,96.40
2023-04-08T02:09:55.902Z,101.40
2023-04-08T02:10:55.903Z,99.90
2023-04-08T02:11:55.893Z,103.00
2023-04-08T02:12:55.895Z,112.00
2023-04-08T02:13:55.883Z,106.80
2023-04-08T02:14:55.880Z,104.40
2023-04-08T02:15:55.898Z,105.50
2023-04-08T02:16:55.898Z,97.60
2023-04-08T02:17:56.071Z,97.30
2023-04-08T02:18:55.869Z,98.90
2023-04-08T02:19:55.859Z,108.10
2023-04-08T02:20:55.861Z,107.10
2023-04-08T02:21:55.848Z,105.90
2023-04-08T02:22:55.843Z,106.70
2023-04-08T02:23:55.841Z,105.20
2023-04-08T02:24:55.852Z,97.80
2023-04-08T02:25:55.845Z,96.40
2023-04-08T02:26:55.839Z,96.90
2023-04-08T02:27:55.820Z,103.60
2023-04-08T02:28:55.819Z,100.80
2023-04-08T02:29:55.811Z,103.80
2023-04-08T02:30:55.825Z,99.40
2023-04-08T02:31:55.931Z,104.40
2023-04-08T02:32:55.939Z,110.90
2023-04-08T02:33:55.798Z,107.60
2023-04-08T02:34:55.796Z,109.00
2023-04-08T02:35:55.824Z,106.10
2023-04-08T02:36:55.783Z,111.20
2023-04-08T02:37:55.775Z,107.30
2023-04-08T02:38:55.775Z,104.90
2023-04-08T02:39:55.772Z,111.60
2023-04-08T02:40:55.765Z,115.20
2023-04-08T02:41:55.766Z,107.40
2023-04-08T02:42:55.756Z,116.20
2023-04-08T02:43:55.755Z,112.40
2023-04-08T02:44:55.751Z,113.20
2023-04-08T02:45:55.827Z,114.20
2023-04-08T02:46:55.745Z,107.90
2023-04-08T02:47:55.781Z,102.20
2023-04-08T02:48:55.760Z,105.20
2023-04-08T02:49:55.722Z,100.20
2023-04-08T02:50:55.732Z,111.50
2023-04-08T02:51:55.727Z,112.60
2023-04-08T02:52:55.713Z,117.60
2023-04-08T02:53:55.707Z,115.60
2023-04-08T02:54:55.706Z,113.40
2023-04-08T02:55:55.695Z,123.60
2023-04-08T02:56:55.697Z,119.50
2023-04-08T02:57:55.699Z,115.20
2023-04-08T02:58:55.683Z,111.40
2023-04-08T02:59:55.688Z,107.00
2023-04-08T03:00:55.705Z,111.60
2023-04-08T03:01:55.719Z,124.40
2023-04-08T03:02:55.807Z,122.00
2023-04-08T03:03:55.720Z,118.30
2023-04-08T03:04:55.678Z,124.90
2023-04-08T03:05:55.654Z,120.10
2023-04-08T03:06:55.653Z,118.90
2023-04-08T03:07:55.644Z,117.90
2023-04-08T03:08:55.638Z,114.50
2023-04-08T03:09:55.732Z,119.70
2023-04-08T03:10:55.640Z,124.60
2023-04-08T03:11:55.623Z,109.80
2023-04-08T03:12:55.624Z,119.60
2023-04-08T03:13:55.618Z,123.20
2023-04-08T03:14:55.611Z,117.50
2023-04-08T03:15:55.607Z,120.00
2023-04-08T03:16:55.705Z,124.00
2023-04-08T03:17:55.670Z,122.20
2023-04-08T03:18:55.596Z,132.70
2023-04-08T03:19:55.592Z,129.40
2023-04-08T03:20:55.608Z,132.10
2023-04-08T03:21:55.580Z,127.20
2023-04-08T03:22:55.579Z,128.20
2023-04-08T03:23:55.572Z,133.30
2023-04-08T03:24:55.568Z,122.00
2023-04-08T03:25:55.563Z,119.40
2023-04-08T03:26:55.567Z,116.90
2023-04-08T03:27:55.553Z,121.00
2023-04-08T03:28:55.552Z,115.00
2023-04-08T03:29:55.544Z,116.00
2023-04-08T03:30:55.560Z,104.70
2023-04-08T03:31:55.602Z,97.70
2023-04-08T03:32:55.577Z,102.50
2023-04-08T03:33:55.527Z,87.80
2023-04-08T03:34:55.525Z,100.00
2023-04-08T03:35:55.601Z,96.80
2023-04-08T03:36:55.606Z,108.80
2023-04-08T03:37:55.513Z,111.60
2023-04-08T03:38:55.513Z,109.40
2023-04-08T03:39:55.505Z,104.20
2023-04-08T03:40:55.700Z,107.60
2023-04-08T03:41:55.492Z,108.30
2023-04-08T03:42:55.489Z,100.30
2023-04-08T03:43:55.487Z,89.30
2023-04-08T03:44:55.486Z,75.10
2023-04-08T03:45:55.535Z,83.50
2023-04-08T03:46:55.472Z,59.40
2023-04-08T03:47:55.516Z,75.10
2023-04-08T03:48:55.463Z,63.70
2023-04-08T03:49:55.480Z,58.80
2023-04-08T03:50:55.469Z,47.70
2023-04-08T03:51:55.459Z,51.90
2023-04-08T03:52:55.476Z,60.60
2023-04-08T03:53:55.452Z,68.40
2023-04-08T03:54:55.434Z,57.70
2023-04-08T03:55:55.429Z,48.80
2023-04-08T03:56:55.428Z,44.90
2023-04-08T03:57:55.419Z,46.60
2023-04-08T03:58:55.428Z,45.90
2023-04-08T03:59:55.411Z,48.60
2023-04-08T04:00:55.421Z,51.00
2023-04-08T04:01:55.482Z,63.90
2023-04-08T04:02:55.509Z,73.10
2023-04-08T04:03:55.574Z,69.70
2023-04-08T04:04:55.450Z,64.60
2023-04-08T04:05:55.384Z,60.20
2023-04-08T04:06:55.381Z,53.60
2023-04-08T04:07:55.393Z,55.30
2023-04-08T04:08:55.403Z,60.00
2023-04-08T04:09:55.364Z,59.60
2023-04-08T04:10:55.366Z,53.80
2023-04-08T04:11:55.358Z,50.00
2023-04-08T04:12:55.357Z,42.20
2023-04-08T04:13:55.346Z,44.20
2023-04-08T04:14:55.347Z,45.40
2023-04-08T04:15:55.416Z,39.60
2023-04-08T04:16:55.340Z,63.30
2023-04-08T04:17:55.405Z,61.00
2023-04-08T04:18:55.402Z,61.90
2023-04-08T04:19:55.321Z,55.50
2023-04-08T04:20:55.321Z,63.40
2023-04-08T04:21:55.310Z,62.50
2023-04-08T04:22:55.310Z,48.10
2023-04-08T04:23:55.315Z,34.40
2023-04-08T04:24:55.316Z,43.60
2023-04-08T04:25:55.297Z,40.40
2023-04-08T04:26:55.288Z,41.20
2023-04-08T04:27:55.292Z,48.40
2023-04-08T04:28:55.282Z,47.40
2023-04-08T04:29:55.274Z,48.70
2023-04-08T04:30:56.626Z,44.70
2023-04-08T04:31:55.270Z,48.10
2023-04-08T04:32:55.294Z,43.00
2023-04-08T04:33:55.284Z,45.50
2023-04-08T04:34:55.250Z,46.30
2023-04-08T04:35:55.275Z,47.90
2023-04-08T04:36:55.243Z,42.60
2023-04-08T04:37:55.237Z,50.60
2023-04-08T04:38:55.560Z,44.50
2023-04-08T04:39:55.227Z,48.30
2023-04-08T04:40:55.645Z,54.50
2023-04-08T04:41:55.222Z,52.60
2023-04-08T04:42:55.225Z,48.30
2023-04-08T04:43:55.209Z,58.90
2023-04-08T04:44:55.206Z,65.50
2023-04-08T04:45:55.197Z,59.40
2023-04-08T04:46:55.220Z,63.90
2023-04-08T04:47:55.224Z,63.20
2023-04-08T04:48:55.186Z,67.20
2023-04-08T04:49:55.179Z,59.80
2023-04-08T04:50:55.176Z,61.60
2023-04-08T04:51:55.172Z,62.60
2023-04-08T04:52:55.166Z,60.90
2023-04-08T04:53:55.162Z,65.70
2023-04-08T04:54:55.158Z,61.70
2023-04-08T04:55:55.150Z,56.80
2023-04-08T04:56:55.169Z,55.80
2023-04-08T04:57:55.143Z,60.50
2023-04-08T04:58:55.146Z,54.40
2023-04-08T04:59:55.184Z,60.40
2023-04-08T05:00:55.141Z,58.70
2023-04-08T05:01:55.182Z,66.50
2023-04-08T05:02:55.211Z,65.40
2023-04-08T05:03:55.123Z,56.30
2023-04-08T05:04:55.192Z,55.50
2023-04-08T05:05:55.121Z,67.50
2023-04-08T05:06:55.108Z,53.80
2023-04-08T05:07:55.099Z,57.20
2023-04-08T05:08:55.101Z,49.90
2023-04-08T05:09:55.089Z,52.00
2023-04-08T05:10:55.087Z,53.30
2023-04-08T05:11:55.101Z,47.00
2023-04-08T05:12:55.115Z,43.90
2023-04-08T05:13:55.087Z,50.00
2023-04-08T05:14:55.078Z,57.10
2023-04-08T05:15:55.119Z,54.50
2023-04-08T05:16:55.071Z,49.20
2023-04-08T05:17:55.115Z,51.20
2023-04-08T05:18:55.057Z,54.40
2023-04-08T05:19:55.054Z,52.70
2023-04-08T05:20:55.048Z,49.80
2023-04-08T05:21:55.041Z,53.50
2023-04-08T05:22:55.041Z,62.40
2023-04-08T05:23:55.061Z,50.80
2023-04-08T05:24:55.031Z,48.90
2023-04-08T05:25:55.024Z,42.70
2023-04-08T05:26:55.022Z,45.90
2023-04-08T05:27:55.021Z,58.70
2023-04-08T05:28:55.033Z,41.30
2023-04-08T05:29:55.019Z,35.60
2023-04-08T05:30:55.006Z,29.90
2023-04-08T05:31:55.037Z,30.70
2023-04-08T05:32:55.599Z,27.50
2023-04-08T05:33:55.010Z,33.40
2023-04-08T05:34:54.985Z,42.70
2023-04-08T05:35:55.030Z,54.10
2023-04-08T05:36:54.978Z,52.50
2023-04-08T05:37:54.970Z,48.30
2023-04-08T05:38:54.977Z,41.40
2023-04-08T05:39:54.978Z,41.90
2023-04-08T05:40:54.956Z,47.50
2023-04-08T05:41:54.955Z,45.70
2023-04-08T05:42:54.946Z,35.50
2023-04-08T05:43:54.946Z,47.10
2023-04-08T05:44:55.052Z,45.30
2023-04-08T05:45:54.930Z,34.90
2023-04-08T05:46:54.954Z,36.80
2023-04-08T05:47:54.948Z,34.30
2023-04-08T05:48:54.918Z,38.10
2023-04-08T05:49:54.913Z,41.60
2023-04-08T05:50:54.906Z,38.50
2023-04-08T05:51:54.904Z,40.70
2023-04-08T05:52:54.899Z,40.70
2023-04-08T05:53:54.901Z,36.50
2023-04-08T05:54:54.889Z,35.50
2023-04-08T05:55:54.888Z,34.70
2023-04-08T05:56:54.876Z,37.70
2023-04-08T05:57:54.889Z,37.00
2023-04-08T05:58:54.868Z,34.80
2023-04-08T05:59:54.879Z,34.80
2023-04-08T06:00:54.879Z,33.70
2023-04-08T06:01:54.927Z,32.40
2023-04-08T06:02:55.075Z,33.80
2023-04-08T06:03:54.977Z,38.10
2023-04-08T06:04:54.875Z,40.00
2023-04-08T06:05:54.832Z,38.80
2023-04-08T06:06:54.824Z,37.50
2023-04-08T06:07:54.825Z,37.70
2023-04-08T06:08:54.816Z,44.30
2023-04-08T06:09:54.813Z,42.00
2023-04-08T06:10:54.809Z,40.80
2023-04-08T06:11:54.801Z,40.00
2023-04-08T06:12:54.794Z,38.80
2023-04-08T06:13:54.801Z,40.50
2023-04-08T06:14:54.785Z,38.50
2023-04-08T06:15:54.784Z,38.30
2023-04-08T06:16:54.865Z,38.50
2023-04-08T06:17:54.803Z,39.20
2023-04-08T06:18:54.765Z,38.00
2023-04-08T06:19:54.764Z,43.30
2023-04-08T06:20:54.757Z,40.50
2023-04-08T06:21:54.752Z,40.60
2023-04-08T06:22:54.749Z,38.60
2023-04-08T06:23:54.744Z,37.40
2023-04-08T06:24:54.738Z,35.30
2023-04-08T06:25:54.734Z,32.30
2023-04-08T06:26:54.732Z,38.10
2023-04-08T06:27:54.724Z,43.00
2023-04-08T06:28:54.718Z,50.90
2023-04-08T06:29:54.716Z,54.00
2023-04-08T06:30:54.710Z,54.90
2023-04-08T06:31:54.755Z,62.70
2023-04-08T06:32:54.817Z,65.90
2023-04-08T06:33:54.697Z,69.10
2023-04-08T06:34:54.692Z,70.70
2023-04-08T06:35:54.715Z,70.70
2023-04-08T06:36:54.690Z,74.80
2023-04-08T06:37:54.691Z,73.20
2023-04-08T06:38:54.679Z,74.80
2023-04-08T06:39:54.833Z,77.50
2023-04-08T06:40:54.668Z,73.10
2023-04-08T06:41:54.665Z,76.20
2023-04-08T06:42:54.664Z,75.50
2023-04-08T06:43:54.657Z,79.70
2023-04-08T06:44:54.649Z,80.90
2023-04-08T06:45:54.662Z,77.40
2023-04-08T06:46:54.644Z,77.10
2023-04-08T06:47:54.695Z,79.00
2023-04-08T06:48:54.657Z,79.30
2023-04-08T06:49:54.629Z,76.40
2023-04-08T06:50:54.616Z,84.40
2023-04-08T06:51:54.615Z,83.20
2023-04-08T06:52:54.605Z,80.50
2023-04-08T06:53:54.601Z,80.70
2023-04-08T06:54:54.600Z,81.60
2023-04-08T06:55:54.596Z,84.20
2023-04-08T06:56:54.587Z,79.80
2023-04-08T06:57:54.584Z,81.50
2023-04-08T06:58:54.588Z,81.10
2023-04-08T06:59:54.573Z,78.20
2023-04-08T07:00:54.586Z,79.20
2023-04-08T07:01:54.717Z,82.90
2023-04-08T07:02:54.653Z,77.60
2023-04-08T07:03:54.616Z,86.00
2023-04-08T07:04:54.572Z,90.10
2023-04-08T07:05:54.769Z,81.50
2023-04-08T07:06:54.543Z,80.00
2023-04-08T07:07:54.535Z,82.90
2023-04-08T07:08:54.527Z,76.60
2023-04-08T07:09:54.528Z,79.10
2023-04-08T07:10:54.523Z,79.80
2023-04-08T07:11:54.521Z,80.70
2023-04-08T07:12:54.516Z,82.70
2023-04-08T07:13:54.518Z,88.80
2023-04-08T07:14:54.499Z,88.70
2023-04-08T07:15:54.497Z,89.70
2023-04-08T07:16:54.598Z,89.40
2023-04-08T07:17:54.504Z,90.30
2023-04-08T07:18:54.484Z,91.00
2023-04-08T07:19:54.477Z,89.30
2023-04-08T07:20:54.590Z,96.20
2023-04-08T07:21:54.462Z,93.50
2023-04-08T07:22:54.463Z,91.90
2023-04-08T07:23:54.457Z,94.20
2023-04-08T07:24:54.454Z,93.90
2023-04-08T07:25:54.447Z,97.10
2023-04-08T07:26:54.441Z,98.50
2023-04-08T07:27:54.443Z,99.80
2023-04-08T07:28:54.433Z,98.20
2023-04-08T07:29:54.428Z,97.30
2023-04-08T07:30:54.433Z,101.60
2023-04-08T07:31:54.416Z,102.90
2023-04-08T07:32:54.444Z,111.40
2023-04-08T07:33:54.409Z,111.50
2023-04-08T07:34:54.404Z,113.30
2023-04-08T07:35:54.543Z,108.70
2023-04-08T07:36:54.424Z,118.60
2023-04-08T07:37:54.387Z,124.20
2023-04-08T07:38:54.378Z,126.50
2023-04-08T07:39:54.395Z,126.90
2023-04-08T07:40:54.379Z,126.60
2023-04-08T07:41:54.366Z,131.10
2023-04-08T07:42:54.369Z,137.80
2023-04-08T07:43:54.364Z,145.60
2023-04-08T07:44:54.350Z,140.30
2023-04-08T07:45:54.826Z,141.30
2023-04-08T07:46:54.346Z,140.80
2023-04-08T07:47:54.404Z,139.10
2023-04-08T07:48:54.346Z,127.90
2023-04-08T07:49:54.422Z,125.10
2023-04-08T07:51:08.815Z,126.40
2023-04-08T07:51:54.314Z,131.80
2023-04-08T07:52:54.349Z,150.60
2023-04-08T07:53:54.313Z,166.20
2023-04-08T07:54:54.314Z,178.10
2023-04-08T07:55:54.343Z,175.40
2023-04-08T07:56:54.289Z,183.10
2023-04-08T07:57:54.294Z,179.70
2023-04-08T07:58:54.575Z,185.30
2023-04-08T07:59:54.291Z,179.10
2023-04-08T08:00:54.279Z,184.50
2023-04-08T08:01:54.379Z,193.20
2023-04-08T08:02:54.310Z,175.70
2023-04-08T08:03:54.747Z,177.60
2023-04-08T08:04:54.270Z,180.30
2023-04-08T08:05:54.249Z,178.50
2023-04-08T08:06:54.243Z,172.70
2023-04-08T08:07:54.234Z,183.00
2023-04-08T08:08:54.251Z,188.20
2023-04-08T08:09:54.229Z,181.70
2023-04-08T08:10:54.219Z,185.90
2023-04-08T08:11:54.231Z,186.10
2023-04-08T08:12:54.216Z,181.10
2023-04-08T08:13:54.217Z,177.80
2023-04-08T08:14:54.200Z,185.70
2023-04-08T08:15:54.230Z,188.90
2023-04-08T08:16:54.199Z,199.60
2023-04-08T08:17:54.219Z,191.80
2023-04-08T08:18:54.187Z,177.20
2023-04-08T08:19:54.181Z,179.10
2023-04-08T08:20:54.173Z,181.60
2023-04-08T08:21:54.165Z,175.40
2023-04-08T08:22:57.517Z,171.50
2023-04-08T08:23:54.155Z,172.90
2023-04-08T08:24:54.174Z,170.40
2023-04-08T08:25:54.144Z,169.80
2023-04-08T08:26:54.138Z,177.10
2023-04-08T08:27:54.135Z,166.50
2023-04-08T08:28:54.132Z,170.30
2023-04-08T08:29:54.130Z,159.90
2023-04-08T08:30:54.154Z,160.30
2023-04-08T08:31:54.118Z,164.00
2023-04-08T08:32:54.216Z,156.50
2023-04-08T08:33:54.106Z,160.50
2023-04-08T08:34:54.099Z,156.30
2023-04-08T08:35:54.121Z,153.70
2023-04-08T08:36:54.099Z,152.20
2023-04-08T08:37:54.092Z,152.00
2023-04-08T08:38:54.096Z,149.90
2023-04-08T08:39:54.075Z,150.40
2023-04-08T08:40:54.091Z,141.00
2023-04-08T08:41:54.065Z,140.90
2023-04-08T08:42:54.078Z,143.70
2023-04-08T08:43:54.056Z,134.50
2023-04-08T08:44:54.052Z,134.00
2023-04-08T08:45:54.044Z,133.00
2023-04-08T08:46:54.125Z,128.30
2023-04-08T08:47:54.081Z,129.50
2023-04-08T08:48:54.026Z,125.40
2023-04-08T08:49:54.025Z,129.10
2023-04-08T08:50:54.024Z,127.10
2023-04-08T08:51:54.016Z,130.20
2023-04-08T08:52:54.012Z,131.50
2023-04-08T08:53:54.326Z,128.90
2023-04-08T08:54:53.999Z,125.20
2023-04-08T08:56:16.232Z,126.30
2023-04-08T08:56:54.006Z,130.80
2023-04-08T08:57:53.991Z,127.50
2023-04-08T08:58:53.989Z,126.00
2023-04-08T08:59:53.977Z,127.60
2023-04-08T09:00:53.968Z,123.50
2023-04-08T09:01:53.988Z,121.10
2023-04-08T09:02:54.104Z,112.70
2023-04-08T09:03:54.348Z,118.50
2023-04-08T09:04:54.072Z,113.60
2023-04-08T09:05:53.946Z,116.80
2023-04-08T09:06:53.934Z,112.70
2023-04-08T09:07:53.930Z,114.40
2023-04-08T09:08:53.924Z,111.80
2023-04-08T09:09:53.921Z,111.20
2023-04-08T09:10:53.912Z,109.10
2023-04-08T09:11:53.915Z,107.20
2023-04-08T09:12:53.931Z,104.00
2023-04-08T09:13:53.912Z,104.10
2023-04-08T09:14:53.894Z,101.70
2023-04-08T09:15:53.914Z,102.80
2023-04-08T09:16:53.978Z,101.90
2023-04-08T09:17:53.919Z,99.90
2023-04-08T09:18:53.873Z,100.10
2023-04-08T09:19:53.872Z,98.40
2023-04-08T09:20:53.896Z,100.00
2023-04-08T09:21:53.863Z,97.30
2023-04-08T09:22:53.866Z,101.80
2023-04-08T09:23:54.054Z,103.80
2023-04-08T09:24:53.846Z,99.90
2023-04-08T09:25:53.848Z,98.20
2023-04-08T09:26:54.292Z,101.90
2023-04-08T09:27:53.831Z,102.30
2023-04-08T09:28:53.850Z,94.40
2023-04-08T09:29:53.830Z,89.90
2023-04-08T09:30:53.827Z,91.90
2023-04-08T09:31:53.843Z,90.70
2023-04-08T09:32:53.890Z,88.20
2023-04-08T09:33:53.807Z,91.40
2023-04-08T09:34:53.797Z,94.70
2023-04-08T09:35:53.831Z,97.10
2023-04-08T09:36:53.793Z,95.00
2023-04-08T09:37:53.783Z,89.50
2023-04-08T09:38:53.785Z,86.50
2023-04-08T09:39:53.775Z,85.50
2023-04-08T09:40:53.767Z,83.70
2023-04-08T09:41:53.775Z,80.20
2023-04-08T09:42:53.755Z,79.60
2023-04-08T09:43:53.891Z,82.90
2023-04-08T09:44:53.764Z,82.60
2023-04-08T09:45:53.781Z,81.50
2023-04-08T09:46:53.746Z,82.70
2023-04-08T09:47:53.786Z,78.30
2023-04-08T09:48:53.727Z,72.90
2023-04-08T09:49:53.716Z,76.20
2023-04-08T09:50:53.723Z,73.50
2023-04-08T09:51:53.715Z,72.90
2023-04-08T09:52:53.709Z,75.40
2023-04-08T09:53:53.700Z,77.80
2023-04-08T09:54:53.702Z,76.80
2023-04-08T09:55:53.694Z,76.30
2023-04-08T09:56:53.687Z,80.30
2023-04-08T09:57:53.686Z,73.80
2023-04-08T09:58:53.722Z,71.40
2023-04-08T09:59:53.701Z,75.20
2023-04-08T10:00:53.722Z,70.80
2023-04-08T10:01:53.884Z,73.10
2023-04-08T10:02:53.894Z,67.20
2023-04-08T10:03:53.946Z,74.20
2023-04-08T10:04:53.704Z,68.10
2023-04-08T10:05:53.640Z,65.70
2023-04-08T10:06:53.645Z,63.40
2023-04-08T10:07:53.697Z,70.90
2023-04-08T10:08:53.664Z,71.90
2023-04-08T10:09:53.665Z,76.10
2023-04-08T10:10:53.626Z,73.60
2023-04-08T10:11:53.643Z,72.90
2023-04-08T10:12:53.612Z,70.60
2023-04-08T10:13:53.704Z,76.00
2023-04-08T10:14:53.600Z,73.80
2023-04-08T10:15:53.595Z,71.60
2023-04-08T10:16:53.641Z,75.80
2023-04-08T10:17:53.666Z,67.30
2023-04-08T10:18:53.583Z,65.90
2023-04-08T10:19:53.574Z,73.00
2023-04-08T10:20:53.572Z,70.80
2023-04-08T10:21:53.563Z,69.30
2023-04-08T10:22:53.563Z,67.10
2023-04-08T10:23:53.557Z,62.80
2023-04-08T10:24:53.555Z,62.60
2023-04-08T10:25:53.548Z,59.60
2023-04-08T10:26:53.543Z,61.10
2023-04-08T10:27:53.537Z,63.50
2023-04-08T10:28:53.537Z,64.90
2023-04-08T10:29:53.533Z,60.10
2023-04-08T10:30:53.529Z,61.20
2023-04-08T10:31:53.561Z,62.00
2023-04-08T10:32:53.628Z,60.30
2023-04-08T10:33:53.512Z,57.90
2023-04-08T10:34:53.511Z,56.70
2023-04-08T10:35:53.613Z,56.90
2023-04-08T10:36:53.497Z,55.20
2023-04-08T10:37:53.499Z,52.50
2023-04-08T10:38:53.484Z,52.40
2023-04-08T10:39:53.476Z,50.40
2023-04-08T10:40:53.480Z,50.90
2023-04-08T10:41:53.466Z,51.90
2023-04-08T10:42:53.462Z,51.50
2023-04-08T10:43:53.461Z,51.90
2023-04-08T10:44:53.457Z,50.90
2023-04-08T10:45:53.477Z,53.70
2023-04-08T10:46:53.443Z,53.60
2023-04-08T10:47:53.498Z,51.40
2023-04-08T10:48:53.460Z,51.60
2023-04-08T10:49:53.438Z,52.90
2023-04-08T10:50:53.426Z,53.40
2023-04-08T10:51:53.432Z,51.30
2023-04-08T10:52:53.420Z,53.20
2023-04-08T10:53:53.417Z,54.30
2023-04-08T10:54:53.412Z,54.90
2023-04-08T10:55:53.400Z,53.30
2023-04-08T10:56:53.409Z,47.10
2023-04-08T10:57:53.390Z,48.10
2023-04-08T10:58:53.394Z,52.00
2023-04-08T10:59:53.387Z,50.80
2023-04-08T11:00:53.396Z,52.70
2023-04-08T11:01:53.450Z,52.30
2023-04-08T11:02:53.500Z,55.20
2023-04-08T11:03:53.876Z,50.80
2023-04-08T11:04:53.409Z,51.60
2023-04-08T11:05:53.357Z,46.60
2023-04-08T11:06:53.354Z,46.10
2023-04-08T11:07:53.415Z,46.90
2023-04-08T11:08:53.349Z,46.40
2023-04-08T11:09:53.338Z,45.60
2023-04-08T11:10:53.338Z,31.00
2023-04-08T11:11:53.329Z,29.30
2023-04-08T11:12:53.329Z,27.00
2023-04-08T11:13:54.078Z,24.70
2023-04-08T11:14:53.323Z,23.20
2023-04-08T11:15:53.399Z,26.30
2023-04-08T11:16:53.314Z,25.10
2023-04-08T11:17:53.311Z,23.40
2023-04-08T11:18:53.302Z,24.20
2023-04-08T11:19:53.295Z,25.00
2023-04-08T11:20:53.317Z,26.20
2023-04-08T11:21:53.294Z,24.80
2023-04-08T11:22:53.289Z,24.30
2023-04-08T11:23:54.066Z,22.70
2023-04-08T11:24:53.277Z,20.10
2023-04-08T11:25:53.269Z,20.80
2023-04-08T11:26:53.268Z,20.80
2023-04-08T11:27:53.266Z,22.90
2023-04-08T11:28:53.260Z,21.90
2023-04-08T11:29:53.252Z,20.90
2023-04-08T11:30:53.292Z,19.90
2023-04-08T11:31:53.691Z,20.30
2023-04-08T11:32:53.380Z,21.90
2023-04-08T11:33:53.471Z,22.50
2023-04-08T11:34:53.236Z,21.80
2023-04-08T11:35:53.286Z,21.20
2023-04-08T11:36:53.269Z,20.30
2023-04-08T11:37:53.215Z,21.80
2023-04-08T11:38:53.213Z,20.50
2023-04-08T11:39:53.203Z,20.90
2023-04-08T11:40:53.201Z,20.80
2023-04-08T11:41:53.220Z,20.70
2023-04-08T11:42:53.209Z,21.40
2023-04-08T11:43:53.185Z,21.50
2023-04-08T11:44:53.188Z,20.90
2023-04-08T11:45:53.179Z,19.60
2023-04-08T11:46:53.284Z,20.90
2023-04-08T11:47:53.164Z,20.90
2023-04-08T11:48:53.164Z,21.60
2023-04-08T11:49:53.159Z,21.90
2023-04-08T11:50:53.155Z,22.10
2023-04-08T11:51:53.149Z,24.10
2023-04-08T11:52:53.228Z,23.70
2023-04-08T11:53:55.899Z,26.10
2023-04-08T11:54:53.146Z,25.80
2023-04-08T11:55:53.132Z,24.80
2023-04-08T11:56:53.130Z,24.00
2023-04-08T11:57:53.120Z,23.90
2023-04-08T11:58:53.136Z,24.00
2023-04-08T11:59:53.113Z,23.60
2023-04-08T12:00:53.119Z,24.10
2023-04-08T12:01:53.172Z,23.30
2023-04-08T12:02:53.185Z,22.60
2023-04-08T12:03:53.314Z,21.60
2023-04-08T12:04:53.124Z,21.80
2023-04-08T12:05:53.087Z,22.20
2023-04-08T12:06:53.092Z,20.80
2023-04-08T12:07:53.079Z,20.70
2023-04-08T12:08:53.110Z,19.70
2023-04-08T12:09:53.068Z,18.80
2023-04-08T12:10:53.064Z,18.40
2023-04-08T12:11:53.057Z,17.50
2023-04-08T12:12:53.056Z,16.90
2023-04-08T12:13:53.329Z,14.10
2023-04-08T12:14:53.053Z,14.70
2023-04-08T12:15:53.047Z,15.30
2023-04-08T12:16:53.037Z,15.80
2023-04-08T12:17:53.046Z,13.70
2023-04-08T12:18:53.027Z,15.50
2023-04-08T12:19:53.017Z,15.20
2023-04-08T12:20:53.016Z,16.90
2023-04-08T12:21:53.009Z,16.00
2023-04-08T12:22:53.009Z,16.90
2023-04-08T12:23:53.237Z,16.60
2023-04-08T12:24:53.028Z,16.00
2023-04-08T12:25:52.993Z,16.80
2023-04-08T12:26:52.989Z,16.50
2023-04-08T12:27:52.986Z,16.90
2023-04-08T12:28:52.988Z,17.20
2023-04-08T12:29:52.979Z,14.30
2023-04-08T12:30:52.968Z,13.60
2023-04-08T12:31:53.062Z,10.20
2023-04-08T12:32:53.000Z,9.90
2023-04-08T12:33:53.082Z,9.00
2023-04-08T12:34:52.952Z,9.80
2023-04-08T12:35:52.977Z,10.10
2023-04-08T12:36:52.947Z,10.60
2023-04-08T12:37:52.937Z,9.90
2023-04-08T12:38:53.077Z,10.40
2023-04-08T12:39:52.930Z,11.40
2023-04-08T12:40:52.964Z,11.20
2023-04-08T12:41:52.932Z,11.80
2023-04-08T12:42:52.925Z,11.90
2023-04-08T12:43:52.912Z,11.40
2023-04-08T12:44:52.914Z,10.80
2023-04-08T12:45:52.902Z,11.00